Weather observations for the past three days for
Canton, Cherokee County Airport
Imperial (Metric)
Date Time (edt) Wind (mph) Vis. (mi.) Weather Sky Cond. Temperature (ºF) Relative Humidity Wind Chill (°F) Heat Index (°F) Pressure Precipitation (in)
Air Dwpt 6 hour altimeter (in) sea level (mb) 1 hr 3 hr 6 hr
Max. Min.
04 14:15 SW 7 10.00 Fair CLR 74.3 48 39% 30.02 0.0
04 13:55 SW 5 10.00 Fair CLR 73.4 46.9 74.1 44.8 39% 30.03 0.0
04 13:35 SW 5 10.00 Fair CLR 72.7 47.3 41% 30.04 0.0
04 13:15 W 7 10.00 Fair CLR 70.9 45.7 41% 30.05 0.0
04 12:55 SE 5 10.00 Fair CLR 71.2 46.8 42% 30.06 0.0
04 12:35 W 8 10.00 Fair CLR 69.4 45.1 42% 30.06 0.0
04 12:15 NW 3 10.00 Fair CLR 68.4 45.3 44% 30.07 0.0
04 11:55 W 6 10.00 Fair CLR 67.8 43.7 42% 30.08 0.0
04 11:35 NW 8 10.00 Fair CLR 67.8 44.2 43% 30.08 0.0
04 11:15 W 7 10.00 Fair CLR 67.1 45.3 46% 30.08 0.0
04 10:55 NW 3 10.00 Fair CLR 64 45.3 51% 30.09 0.0
04 10:35 NW 3 10.00 Fair CLR 62.2 44.4 52% 30.09 0.0
04 10:15 Calm 10.00 Fair CLR 60.3 43.9 55% 30.09 0.0
04 09:55 Calm 10.00 Fair CLR 58.3 43.5 58% 30.09 0.0
04 09:35 Calm 10.00 Fair CLR 56.5 44.2 64% 30.09 0.0
04 09:15 Calm 10.00 Fair CLR 55 45.5 70% 30.09 0.0
04 08:55 Calm 10.00 Fair CLR 52.3 45.5 78% 30.09 0.0
04 08:35 Calm 10.00 Fair CLR 49.1 42.8 79% 30.09 0.0
04 07:55 Calm 10.00 Fair CLR 44.2 41.5 46 39.9 90% 30.09 0.0
04 07:35 Calm 10.00 Fair CLR 41.5 39.6 93% 30.09 0.0
04 07:15 Calm 10.00 Fair CLR 41.2 40.3 97% 30.08 0.0
04 06:55 NE 3 10.00 Fair CLR 40.8 40.1 97% 30.08 0.0
04 06:35 Calm 10.00 Fair CLR 41 39.6 95% 30.07 0.0
04 06:15 Calm 10.00 Fair CLR 41 39.6 95% 30.07 0.0
04 05:55 Calm 10.00 Fair CLR 41.4 39.2 92% 30.07 0.0
04 05:35 N 3 10.00 Fair CLR 41 39.6 95% 30.07 0.0
04 05:15 Calm 10.00 Fair CLR 43 41 93% 30.07 0.0
04 04:55 Calm 10.00 Fair CLR 41.9 40.6 95% 30.07 0.0
04 04:35 N 3 10.00 Fair CLR 41.4 40.5 97% 30.07 0.0
04 04:15 N 5 10.00 Fair CLR 42.1 41 96% 40 30.07 0.0
04 03:55 N 3 10.00 Fair CLR 41.7 40.6 96% 30.06 0.0
04 03:35 Calm 10.00 Fair CLR 44.8 41.9 90% 30.07 0.0
04 03:15 Calm 10.00 Fair CLR 44.8 41.9 90% 30.07 0.0
04 02:55 N 3 10.00 Fair CLR 43.2 41.9 95% 30.08 0.0
04 02:35 N 5 10.00 Fair CLR 43.3 41.5 93% 41 30.08 0.0
04 02:15 Calm 10.00 Fair CLR 44.6 42.6 93% 30.09 0.0
04 01:55 N 3 10.00 Fair CLR 45 42.6 63.9 44.6 92% 30.09 0.0
04 01:35 N 6 10.00 Fair CLR 45 42.8 92% 42 30.09 0.0
04 01:15 Calm 10.00 Fair CLR 45.7 43.2 91% 30.09 0.0
04 00:55 Calm 10.00 Fair CLR 45.7 43.2 91% 30.09 0.0
04 00:35 Calm 10.00 Fair CLR 47.7 43.7 86% 30.09 0.0
04 00:15 Calm 10.00 Fair CLR 48.9 43.7 82% 30.09 0.0
03 23:55 Calm 10.00 Fair CLR 52 43 72% 30.09 0.0
03 23:35 Calm 10.00 Fair CLR 50.2 41.9 73% 30.09 0.0
03 23:15 Calm 10.00 Fair CLR 51.6 42.4 71% 30.09 0.0
03 22:55 Calm 10.00 Fair CLR 54 41.4 63% 30.09 0.0
03 22:35 W 3 10.00 Fair CLR 55.9 42.3 60% 30.09 0.0
03 22:15 W 5 10.00 Fair CLR 54 42.4 65% 30.08 0.0
03 21:55 W 6 10.00 Fair CLR 55.2 41.9 61% 30.08 0.0
03 21:35 W 5 10.00 Fair CLR 59.4 40.5 50% 30.07 0.0
03 21:15 W 5 10.00 Fair CLR 60.6 39.4 46% 30.06 0.0
03 20:55 W 3 10.00 Fair CLR 61 39.6 45% 30.06 0.0
03 20:35 NW 3 10.00 Fair CLR 61.3 39.4 44% 30.06 0.0
03 20:15 NW 5 10.00 Fair CLR 63 38.8 41% 30.05 0.0
03 19:55 W 5 10.00 Fair CLR 63.9 38.7 68.4 63 40% 30.05 0.0
03 19:35 NW 7 10.00 Fair CLR 64.6 37.9 38% 30.05 0.0
03 19:15 W 8 10.00 Fair CLR 65.5 38.1 37% 30.05 0.0
03 18:55 NW 7 10.00 Fair CLR 66 38.5 36% 30.06 0.0
03 18:35 NW 8 10.00 Fair CLR 65.8 37.9 36% 30.06 0.0
03 18:15 NW 10 10.00 Fair CLR 66.4 37.6 35% 30.06 0.0
03 17:55 NW 9 10.00 Fair CLR 66 37.2 35% 30.06 0.0
03 17:35 W 9 10.00 Fair CLR 66.7 36.7 33% 30.06 0.0
03 17:15 W 10 10.00 Fair CLR 67.1 34.5 30% 30.07 0.0
03 16:55 W 12 10.00 Fair CLR 66.7 33.6 29% 30.07 0.0
03 16:35 W 7 10.00 Fair CLR 66.2 35.4 32% 30.08 0.0
03 16:15 W 9 10.00 Fair CLR 66.6 35.1 31% 30.09 0.0
03 15:55 W 13 10.00 Fair CLR 67.1 37.2 33% 30.1 0.0
03 15:35 W 6 10.00 Fair CLR 65.7 36.7 34% 30.1 0.0
03 15:15 W 13 10.00 Fair CLR 66 35.2 32% 30.12 0.0
03 14:55 W 13 G 16 10.00 Fair CLR 64.6 35.6 34% 30.12 0.0
03 14:35 NW 8 10.00 Fair CLR 63.9 31.1 29% 30.13 0.0
03 14:15 W 12 10.00 Fair CLR 64.2 35.2 34% 30.13 0.0
03 13:55 W 9 10.00 Fair CLR 64.2 36 64.8 45 35% 30.13 0.0
03 13:35 W 10 G 17 10.00 Fair CLR 63.1 36.3 37% 30.14 0.0
03 13:15 W 10 10.00 Fair CLR 62.1 36.5 39% 30.14 0.0
03 12:55 N 6 10.00 Fair CLR 62.2 39.6 43% 30.14 0.0
03 12:35 NW 8 10.00 Fair CLR 60.8 34.7 38% 30.16 0.0
03 12:15 W 8 10.00 Fair CLR 60.6 35.2 39% 30.16 0.0
03 11:55 NW 8 10.00 Fair CLR 60.6 36.7 41% 30.17 0.0
03 11:35 NW 7 10.00 Fair CLR 58.8 36.1 43% 30.17 0.0
03 11:15 NW 7 10.00 Fair CLR 59.2 36.9 44% 30.17 0.0
03 10:55 NW 9 10.00 Fair CLR 57.6 35.4 44% 30.17 0.0
03 10:35 NW 5 10.00 Fair CLR 56.8 36.5 47% 30.16 0.0
03 10:15 W 6 10.00 Fair CLR 56.8 37.8 49% 30.16 0.0
03 09:55 W 3 10.00 Fair CLR 54.9 39 55% 30.16 0.0
03 09:35 Calm 10.00 Fair CLR 54.3 41.2 61% 30.16 0.0
03 09:15 Calm 10.00 Fair CLR 52 41.2 67% 30.15 0.0
03 08:55 Calm 10.00 Fair CLR 49.8 40.6 71% 30.15 0.0
03 08:35 N 3 10.00 Fair CLR 48 40.1 74% 30.14 0.0
03 08:15 Calm 10.00 Fair CLR 46.4 39.2 76% 30.14 0.0
03 07:55 Calm 10.00 Fair CLR 43.9 39.7 48.4 39.6 85% 30.14 0.0
03 07:35 NW 3 10.00 Fair CLR 42.4 38.8 87% 30.14 0.0
03 07:15 Calm 10.00 Fair CLR 39.7 38.7 96% 30.13 0.0
03 06:35 NW 5 10.00 Fair CLR 41 38.7 91% 38 30.12 0.0
03 06:15 Calm 10.00 Fair CLR 40.8 39.7 96% 30.11 0.0
03 05:55 Calm 10.00 Fair CLR 42.8 38.3 84% 30.1 0.0
03 05:35 NW 5 10.00 Fair CLR 44.1 39 83% 42 30.1 0.0
03 05:15 NW 5 10.00 Fair CLR 44.1 38.8 82% 42 30.1 0.0
03 04:55 NW 5 10.00 Fair CLR 42.4 38.7 87% 40 30.1 0.0
03 04:35 Calm 10.00 Fair CLR 44.4 38.8 81% 30.09 0.0
03 04:15 Calm 10.00 Fair CLR 46 38.5 75% 30.08 0.0
03 03:55 W 6 10.00 Fair CLR 46.6 38.1 73% 44 30.08 0.0
03 03:35 W 3 10.00 Fair CLR 46.4 37.9 72% 30.07 0.0
03 03:15 NW 6 10.00 Fair CLR 46.9 37.6 70% 45 30.07 0.0
03 02:55 NW 6 10.00 Fair CLR 46.4 37.8 72% 44 30.06 0.0
03 02:35 NW 7 10.00 Fair CLR 48.2 37 65% 46 30.07 0.0
03 02:15 NW 5 10.00 Fair CLR 47.8 37.4 67% 46 30.07 0.0
03 01:55 NW 5 10.00 Fair CLR 47.3 37.2 60.4 46.8 68% 46 30.07 0.0
03 01:35 NW 5 10.00 Fair CLR 48.6 37 65% 47 30.07 0.0
03 01:15 Calm 10.00 Fair CLR 48.7 37.2 65% 30.07 0.0
03 00:55 NW 6 10.00 Partly Cloudy SCT085 50.2 36.7 60% 30.06 0.0
03 00:35 NW 6 10.00 Overcast OVC095 49.1 37.9 66% 47 30.06 0.0
03 00:15 Calm 10.00 Partly Cloudy SCT095 50.9 36.1 57% 30.06 0.0
02 23:55 Calm 10.00 Fair CLR 50.4 36.3 59% 30.06 0.0
02 23:35 NW 5 10.00 Fair CLR 50.5 36.3 58% 30.05 0.0
02 23:15 NW 6 10.00 Partly Cloudy SCT090 50.5 36.5 59% 30.05 0.0
02 22:55 NW 6 10.00 Partly Cloudy SCT090 52.3 35.8 53% 30.04 0.0
02 22:35 N 5 10.00 Partly Cloudy SCT090 52.9 36.1 53% 30.04 0.0
02 22:15 Calm 10.00 Fair CLR 53.1 35.8 52% 30.03 0.0
02 21:55 NW 3 10.00 Fair CLR 55 34.5 46% 30.02 0.0
02 21:35 NW 3 10.00 Fair CLR 55 34.7 46% 30.01 0.0
02 21:15 NW 6 10.00 Fair CLR 55.8 34.5 45% 30 0.0
02 20:55 NW 5 10.00 Fair CLR 57 33.6 41% 29.99 0.0
02 20:35 NW 6 10.00 Fair CLR 57.9 33.3 40% 29.98 0.0
02 20:15 NW 7 10.00 Fair CLR 59.4 32.4 36% 29.98 0.0
02 19:55 NW 8 G 17 10.00 Fair CLR 60.8 31.6 67.8 60.6 33% 29.97 0.0
02 19:35 NW 8 10.00 Fair CLR 61.5 32.4 33% 29.96 0.0
02 19:15 NW 15 G 20 10.00 Partly Cloudy SCT075 62.4 31.8 32% 29.96 0.0
02 18:55 NW 12 G 26 10.00 Fair CLR 63 31.1 30% 29.95 0.0
02 18:35 NW 13 G 24 10.00 Fair CLR 63.7 31.5 30% 29.96 0.0
02 18:15 NW 13 G 23 10.00 Fair CLR 63.9 30.9 29% 29.95 0.0
02 17:55 NW 15 G 22 10.00 Fair CLR 64.6 30.9 28% 29.95 0.0
02 17:35 NW 17 G 23 10.00 Fair CLR 64.6 29.3 27% 29.93 0.0
02 17:15 NW 16 G 24 10.00 Fair CLR 64.8 32.2 30% 29.93 0.0
02 16:55 NW 18 G 30 10.00 Fair CLR 64.8 32 29% 29.92 0.0
02 16:35 NW 18 G 29 10.00 Fair CLR 65.3 32.5 30% 29.91 0.0
02 16:15 NW 15 G 26 10.00 Fair CLR 66.4 33.1 29% 29.92 0.0
02 15:55 NW 13 G 21 10.00 Fair CLR 66.4 35.4 32% 29.91 0.0
02 15:35 NW 15 G 24 10.00 Fair CLR 66.2 38.1 36% 29.91 0.0
02 15:15 W 14 G 17 10.00 Partly Cloudy SCT050 66.6 40.5 39% 29.92 0.0
02 14:55 NW 15 G 23 10.00 Partly Cloudy SCT049 65.7 41.5 42% 29.91 0.0
02 14:35 NW 15 G 20 10.00 Partly Cloudy SCT049 66.2 42.4 42% 29.92 0.0
02 14:15 NW 14 G 21 10.00 Partly Cloudy SCT047 SCT055 66.2 43.9 45% 29.92 0.0
02 13:55 W 12 10.00 Mostly Cloudy SCT049 BKN055 66.2 45 66.7 53.4 46% 29.92 0.0
02 13:35 NW 7 10.00 Partly Cloudy SCT047 SCT055 SCT065 65.1 44.6 48% 29.92 0.0
02 13:15 N 5 10.00 Partly Cloudy SCT060 SCT065 64 40.8 43% 29.93 0.0
02 12:55 N 9 10.00 Partly Cloudy SCT060 64.6 41.5 43% 29.93 0.0
02 12:35 N 8 10.00 Partly Cloudy SCT060 64 43.2 47% 29.94 0.0
02 12:15 N 8 10.00 Mostly Cloudy BKN070 63 43.5 49% 29.94 0.0
02 11:55 NW 7 10.00 Mostly Cloudy BKN060 BKN070 61.9 45 54% 29.94 0.0
02 11:35 SW 3 10.00 Overcast OVC060 60.6 46.4 60% 29.95 0.0
02 11:15 NW 7 10.00 Overcast OVC060 59.2 44.4 58% 29.95 0.0
02 10:55 N 3 10.00 Overcast OVC060 58.1 44.4 61% 29.94 0.0
02 10:35 NW 6 10.00 Overcast BKN060 OVC070 57.9 44.6 61% 29.94 0.0
02 10:15 NW 5 10.00 Overcast OVC060 56.5 43.7 62% 29.93 0.0
02 09:55 NW 6 10.00 Overcast SCT060 OVC120 55.4 44.1 66% 29.93 0.0
02 09:35 N 5 10.00 Overcast OVC120 55 43.7 66% 29.92 0.0
02 09:15 NW 5 10.00 Mostly Cloudy BKN120 54.7 43.5 66% 29.93 0.0
02 08:55 NW 6 10.00 Partly Cloudy SCT120 54.1 42.3 64% 29.91 0.0
02 08:35 NW 6 10.00 Fair CLR 53.8 41.7 64% 29.92 0.0
02 08:15 NW 5 10.00 Partly Cloudy SCT110 53.6 41.2 63% 29.91 0.0
02 07:55 NW 7 10.00 Mostly Cloudy BKN100 53.4 41 57.4 53.4 63% 29.91 0.0
02 07:35 NW 5 10.00 Mostly Cloudy BKN100 BKN120 53.6 40.6 62% 29.91 0.0
02 07:15 NW 6 10.00 Overcast OVC100 53.8 40.8 62% 29.92 0.0
02 06:55 NW 6 10.00 Mostly Cloudy BKN090 BKN120 54.1 40.6 60% 29.91 0.0
02 06:35 NW 7 10.00 Mostly Cloudy BKN110 54.3 40.5 60% 29.9 0.0
02 06:15 NW 8 10.00 Overcast OVC100 54.7 40.5 59% 29.88 0.0
02 05:55 NW 8 10.00 Overcast BKN090 OVC110 54.9 40.8 59% 29.89 0.0
02 05:35 NW 8 10.00 Overcast OVC120 54.9 41.2 60% 29.9 0.0
02 05:15 NW 7 10.00 Overcast OVC120 55.2 41 59% 29.89 0.0
02 04:55 NW 7 10.00 Mostly Cloudy BKN120 55.6 41.2 59% 29.89 0.0
02 04:35 N 6 10.00 Partly Cloudy SCT120 55.8 41.7 59% 29.89 0.0
02 04:15 NW 9 10.00 Overcast OVC120 55.9 41.9 59% 29.89 0.0
02 03:55 NW 8 10.00 Overcast OVC110 56.3 42.8 61% 29.9 0.0
02 03:15 NW 5 10.00 Overcast OVC100 56.7 45 65% 29.91 0.0
02 02:55 NW 7 10.00 Overcast OVC100 57 45.3 65% 29.92 0.0
02 02:35 NW 8 10.00 Overcast OVC100 57 45.7 66% 29.92 0.0
02 02:15 NW 7 10.00 Overcast OVC100 57 46 67% 29.92 0.0
02 01:55 W 5 10.00 Overcast OVC100 56.8 46.8 61.7 56.3 69% 29.92 0.0
02 01:35 NW 3 10.00 Overcast OVC110 56.5 47.5 72% 29.92 0.0
02 01:15 NW 5 10.00 Overcast OVC110 57.6 46.2 66% 29.93 0.0
02 00:55 NW 3 10.00 Mostly Cloudy BKN110 57.4 46 66% 29.93 0.0
02 00:35 Calm 10.00 Overcast SCT080 OVC100 57.4 46.6 67% 29.93 0.0
02 00:15 Calm 10.00 Overcast SCT070 OVC090 57.7 47.1 68% 29.95 0.0
01 23:55 N 3 10.00 Overcast SCT080 OVC100 56.8 48.6 74% 29.95 0.0
01 23:35 NW 3 10.00 Overcast SCT075 OVC100 57.6 48.4 72% 29.95 0.0
01 23:15 N 3 10.00 Overcast OVC100 58.5 47.3 67% 29.96 0.0
01 22:55 N 3 10.00 Overcast OVC110 59 47.1 65% 29.96 0.0
01 22:35 NW 3 10.00 Overcast OVC120 58.3 48 69% 29.95 0.0
01 22:15 NW 3 10.00 Overcast OVC120 58.5 48.7 70% 29.95 0.0
01 21:55 NW 3 10.00 Partly Cloudy SCT120 58.8 48.9 70% 29.95 0.0
01 21:35 NW 3 10.00 Partly Cloudy SCT120 59.4 49.1 69% 29.94 0.0
01 21:15 NW 5 10.00 Partly Cloudy SCT120 59.9 49.3 68% 29.94 0.0
01 20:55 Calm 10.00 Mostly Cloudy BKN120 60.4 49.1 66% 29.93 0.0
01 20:35 NW 5 10.00 Mostly Cloudy BKN120 60.4 49.3 67% 29.92 0.0
01 20:15 W 6 10.00 Partly Cloudy SCT120 61.5 49.3 64% 29.93 0.0
01 19:55 NW 5 10.00 Partly Cloudy SCT120 61.7 49.3 65.8 61.5 64% 29.92 0.0
01 19:35 NW 5 10.00 Fair CLR 62.4 48.6 61% 29.92 0.0
01 19:15 W 6 10.00 Fair CLR 63.1 47.7 57% 29.92 0.0
01 18:55 NW 6 10.00 Fair CLR 63.7 47.1 55% 29.92 0.0
01 18:35 NW 8 10.00 Fair CLR 64.2 47.3 54% 29.9 0.0
01 18:15 NW 7 10.00 Fair CLR 64.6 47.5 54% 29.9 0.0
01 17:55 NW 6 10.00 Fair CLR 64.4 49.3 58% 29.91 0.0
01 17:35 W 5 10.00 Fair CLR 65.1 47.5 53% 29.92 0.0
01 17:15 W 5 10.00 Partly Cloudy SCT120 64.9 46.8 52% 29.93 0.0
01 16:55 NW 8 10.00 Fair CLR 64.9 45.9 50% 29.94 0.0
01 16:35 W 3 10.00 Partly Cloudy SCT120 64.9 45.3 49% 29.95 0.0
01 16:15 W 3 10.00 Fair CLR 64.4 44.8 49% 29.95 0.0
01 15:55 W 5 10.00 Fair CLR 64.2 44.1 48% 29.95 0.0
01 15:35 Calm 10.00 Fair CLR 64.8 44.2 48% 29.95 0.0
01 15:15 N 5 10.00 Fair CLR 63.9 42.8 46% 29.96 0.0
01 14:55 W 3 10.00 Fair CLR 63.5 43.5 48% 29.96 0.0
01 14:35 S 5 10.00 Fair CLR 64.4 45.5 50% 29.97 0.0
Date Time (edt) Wind (mph) Vis. (mi.) Weather Sky Cond. Air Dwpt Max. Min. Relative Humidity Wind Chill (°F) Heat Index (°F) altimeter (in) sea level (mb) 1 hr 3 hr 6 hr
6 hour
Temperature (ºF) Pressure Precipitation (in)